sensor_id;sensor_type;location;lat;lon;timestamp;P1;durP1;ratioP1;P2;durP2;ratioP2
76699;SDS011;65628;44.498;0.166;2023-04-25T13:03:35;-1.00;;;-1.00;;
76699;SDS011;65628;44.498;0.166;2023-04-25T13:13:11;-1.00;;;-1.00;;
76699;SDS011;65628;44.498;0.166;2023-04-25T13:18:57;6.43;;;3.67;;
76699;SDS011;65628;44.498;0.166;2023-04-25T13:22:04;2.67;;;1.70;;
76699;SDS011;65628;44.498;0.166;2023-04-25T13:27:37;3.93;;;2.67;;
76699;SDS011;65628;44.498;0.166;2023-04-25T13:33:09;3.37;;;2.20;;
76699;SDS011;65628;44.498;0.166;2023-04-25T13:38:44;5.30;;;1.93;;
76699;SDS011;65628;44.498;0.166;2023-04-25T13:44:14;4.73;;;2.23;;
76699;SDS011;65628;44.498;0.166;2023-04-25T13:49:47;2.10;;;1.90;;
76699;SDS011;65628;44.498;0.166;2023-04-25T13:55:20;2.20;;;1.97;;
76699;SDS011;65628;44.498;0.166;2023-04-25T14:00:54;2.80;;;1.60;;
76699;SDS011;65628;44.498;0.166;2023-04-25T14:06:25;2.03;;;1.43;;
76699;SDS011;65628;44.498;0.166;2023-04-25T14:11:59;3.10;;;2.17;;
76699;SDS011;65628;44.498;0.166;2023-04-25T14:17:32;2.33;;;1.70;;
76699;SDS011;65628;44.498;0.166;2023-04-25T14:23:05;1.60;;;1.50;;
76699;SDS011;65628;44.498;0.166;2023-04-25T14:28:36;1.57;;;1.47;;
76699;SDS011;65628;44.498;0.166;2023-04-25T14:34:09;1.43;;;1.33;;
76699;SDS011;65628;44.498;0.166;2023-04-25T14:39:42;2.33;;;1.90;;
76699;SDS011;65628;44.498;0.166;2023-04-25T14:45:16;2.33;;;1.73;;
76699;SDS011;65628;44.498;0.166;2023-04-25T14:50:48;1.83;;;1.70;;
76699;SDS011;65628;44.498;0.166;2023-04-25T14:56:21;4.90;;;1.77;;
76699;SDS011;65628;44.498;0.166;2023-04-25T15:01:54;2.83;;;1.93;;
76699;SDS011;65628;44.498;0.166;2023-04-25T15:07:26;2.60;;;2.40;;
76699;SDS011;65628;44.498;0.166;2023-04-25T15:12:58;3.77;;;2.60;;
76699;SDS011;65628;44.498;0.166;2023-04-25T15:18:31;3.27;;;2.23;;
76699;SDS011;65628;44.498;0.166;2023-04-25T15:24:04;1.90;;;1.80;;
76699;SDS011;65628;44.498;0.166;2023-04-25T15:29:36;2.20;;;1.70;;
76699;SDS011;65628;44.498;0.166;2023-04-25T15:35:09;3.97;;;2.40;;
76699;SDS011;65628;44.498;0.166;2023-04-25T15:40:41;5.47;;;2.90;;
76699;SDS011;65628;44.498;0.166;2023-04-25T15:46:15;2.23;;;2.03;;
76699;SDS011;65628;44.498;0.166;2023-04-25T15:51:47;4.23;;;2.90;;
76699;SDS011;65628;44.498;0.166;2023-04-25T15:57:19;2.40;;;2.20;;
76699;SDS011;65628;44.498;0.166;2023-04-25T16:02:52;4.23;;;2.20;;
76699;SDS011;65628;44.498;0.166;2023-04-25T16:08:25;3.27;;;2.43;;
76699;SDS011;65628;44.498;0.166;2023-04-25T16:13:56;4.97;;;2.03;;
76699;SDS011;65628;44.498;0.166;2023-04-25T16:19:28;3.57;;;2.47;;
76699;SDS011;65628;44.498;0.166;2023-04-25T16:25:00;2.13;;;1.90;;
76699;SDS011;65628;44.498;0.166;2023-04-25T16:30:32;4.27;;;2.27;;
76699;SDS011;65628;44.498;0.166;2023-04-25T16:36:05;3.07;;;2.13;;
76699;SDS011;65628;44.498;0.166;2023-04-25T16:41:37;5.00;;;2.70;;
76699;SDS011;65628;44.498;0.166;2023-04-25T16:47:09;2.60;;;2.40;;
76699;SDS011;65628;44.498;0.166;2023-04-25T16:52:42;3.43;;;2.20;;
76699;SDS011;65628;44.498;0.166;2023-04-25T16:58:15;3.43;;;2.30;;
76699;SDS011;65628;44.498;0.166;2023-04-25T17:03:47;4.70;;;2.50;;
76699;SDS011;65628;44.498;0.166;2023-04-25T17:09:20;2.77;;;2.57;;
76699;SDS011;65628;44.498;0.166;2023-04-25T17:14:53;5.27;;;3.20;;
76699;SDS011;65628;44.498;0.166;2023-04-25T17:20:25;4.17;;;2.70;;
76699;SDS011;65628;44.498;0.166;2023-04-25T17:25:58;6.10;;;3.13;;
76699;SDS011;65628;44.498;0.166;2023-04-25T17:31:31;2.30;;;1.80;;
76699;SDS011;65628;44.498;0.166;2023-04-25T17:37:05;2.43;;;2.00;;
76699;SDS011;65628;44.498;0.166;2023-04-25T17:42:37;2.17;;;1.93;;
76699;SDS011;65628;44.498;0.166;2023-04-25T17:48:12;4.17;;;2.30;;
76699;SDS011;65628;44.498;0.166;2023-04-25T17:53:43;2.30;;;1.70;;
76699;SDS011;65628;44.498;0.166;2023-04-25T17:59:16;1.67;;;1.37;;
76699;SDS011;65628;44.498;0.166;2023-04-25T18:27:01;2.00;;;1.30;;
76699;SDS011;65628;44.498;0.166;2023-04-25T18:32:30;2.90;;;1.40;;
76699;SDS011;65628;44.498;0.166;2023-04-25T18:38:03;3.20;;;2.83;;
76699;SDS011;65628;44.498;0.166;2023-04-25T18:43:35;5.83;;;3.60;;
76699;SDS011;65628;44.498;0.166;2023-04-25T18:49:08;5.80;;;3.43;;
76699;SDS011;65628;44.498;0.166;2023-04-25T18:54:41;3.47;;;2.80;;
76699;SDS011;65628;44.498;0.166;2023-04-25T19:00:14;5.17;;;2.90;;
76699;SDS011;65628;44.498;0.166;2023-04-25T19:05:45;4.17;;;3.17;;
76699;SDS011;65628;44.498;0.166;2023-04-25T19:11:18;7.13;;;3.70;;
76699;SDS011;65628;44.498;0.166;2023-04-25T19:16:51;8.37;;;4.97;;
76699;SDS011;65628;44.498;0.166;2023-04-25T19:22:22;6.13;;;4.70;;
76699;SDS011;65628;44.498;0.166;2023-04-25T19:27:56;8.17;;;4.47;;
76699;SDS011;65628;44.498;0.166;2023-04-25T19:33:28;4.93;;;4.00;;
76699;SDS011;65628;44.498;0.166;2023-04-25T19:39:03;8.10;;;4.90;;
76699;SDS011;65628;44.498;0.166;2023-04-25T19:44:34;4.47;;;3.40;;
76699;SDS011;65628;44.498;0.166;2023-04-25T19:50:08;5.17;;;3.73;;
76699;SDS011;65628;44.498;0.166;2023-04-25T19:55:41;5.23;;;3.20;;
76699;SDS011;65628;44.498;0.166;2023-04-25T20:01:15;5.50;;;3.37;;
76699;SDS011;65628;44.498;0.166;2023-04-25T20:06:46;7.20;;;3.83;;
76699;SDS011;65628;44.498;0.166;2023-04-25T20:12:20;4.47;;;2.43;;
76699;SDS011;65628;44.498;0.166;2023-04-25T20:17:53;7.27;;;3.60;;
76699;SDS011;65628;44.498;0.166;2023-04-25T20:23:26;7.10;;;3.87;;
76699;SDS011;65628;44.498;0.166;2023-04-25T20:28:59;3.33;;;3.03;;
76699;SDS011;65628;44.498;0.166;2023-04-25T20:34:31;6.47;;;4.57;;
76699;SDS011;65628;44.498;0.166;2023-04-25T20:40:05;4.67;;;3.20;;
76699;SDS011;65628;44.498;0.166;2023-04-25T20:45:37;3.40;;;2.73;;
76699;SDS011;65628;44.498;0.166;2023-04-25T20:51:09;4.90;;;3.50;;
76699;SDS011;65628;44.498;0.166;2023-04-25T20:56:42;3.70;;;3.37;;
76699;SDS011;65628;44.498;0.166;2023-04-25T21:02:15;5.03;;;3.27;;
76699;SDS011;65628;44.498;0.166;2023-04-25T21:07:47;3.00;;;2.50;;
76699;SDS011;65628;44.498;0.166;2023-04-25T21:13:20;2.47;;;2.20;;
76699;SDS011;65628;44.498;0.166;2023-04-25T21:18:53;2.30;;;2.10;;
76699;SDS011;65628;44.498;0.166;2023-04-25T21:24:26;3.60;;;2.73;;
76699;SDS011;65628;44.498;0.166;2023-04-25T21:30:00;2.83;;;2.50;;
76699;SDS011;65628;44.498;0.166;2023-04-25T21:35:31;2.60;;;2.30;;
76699;SDS011;65628;44.498;0.166;2023-04-25T21:41:04;8.57;;;3.43;;
76699;SDS011;65628;44.498;0.166;2023-04-25T21:46:37;3.70;;;3.03;;
76699;SDS011;65628;44.498;0.166;2023-04-25T21:52:09;11.27;;;4.43;;
76699;SDS011;65628;44.498;0.166;2023-04-25T21:57:41;3.37;;;2.30;;
76699;SDS011;65628;44.498;0.166;2023-04-25T22:03:15;8.07;;;3.40;;
76699;SDS011;65628;44.498;0.166;2023-04-25T22:08:46;8.03;;;4.67;;
76699;SDS011;65628;44.498;0.166;2023-04-25T22:14:17;9.20;;;5.33;;
76699;SDS011;65628;44.498;0.166;2023-04-25T22:19:49;10.77;;;4.93;;
76699;SDS011;65628;44.498;0.166;2023-04-25T22:25:23;22.50;;;7.10;;
76699;SDS011;65628;44.498;0.166;2023-04-25T22:30:55;14.60;;;6.27;;
76699;SDS011;65628;44.498;0.166;2023-04-25T22:36:29;51.13;;;9.20;;
76699;SDS011;65628;44.498;0.166;2023-04-25T22:42:00;11.47;;;7.10;;
76699;SDS011;65628;44.498;0.166;2023-04-25T22:47:34;35.50;;;8.40;;
76699;SDS011;65628;44.498;0.166;2023-04-25T22:53:07;61.50;;;8.67;;
76699;SDS011;65628;44.498;0.166;2023-04-25T22:58:39;331.57;;;22.27;;
76699;SDS011;65628;44.498;0.166;2023-04-25T23:04:11;378.13;;;24.23;;
76699;SDS011;65628;44.498;0.166;2023-04-25T23:09:45;368.67;;;23.80;;
76699;SDS011;65628;44.498;0.166;2023-04-25T23:15:17;370.57;;;25.17;;
76699;SDS011;65628;44.498;0.166;2023-04-25T23:20:51;340.73;;;24.13;;
76699;SDS011;65628;44.498;0.166;2023-04-25T23:26:23;464.17;;;30.53;;
76699;SDS011;65628;44.498;0.166;2023-04-25T23:31:56;399.37;;;21.70;;
76699;SDS011;65628;44.498;0.166;2023-04-25T23:37:29;308.53;;;19.23;;
76699;SDS011;65628;44.498;0.166;2023-04-25T23:43:02;396.90;;;23.87;;
76699;SDS011;65628;44.498;0.166;2023-04-25T23:48:34;253.30;;;13.77;;
76699;SDS011;65628;44.498;0.166;2023-04-25T23:54:05;329.83;;;19.43;;
76699;SDS011;65628;44.498;0.166;2023-04-25T23:59:39;422.37;;;22.80;;
